Wilsonia, California
Current Conditions -  °F | °C
As of 7:56 PM on Friday 24 Oct 2014 (Local Time) from KBIH Reporting Station
Clear Clear  
Wind Chill: 23°   Ceiling: Unl
Heat Index: 23°   Visibility: 10mi
Dew Point: -7°   Wind: 22mph
Humidity: 14%   Direction: 170°S
Pressure: 29.99"   Gusts: 30mph
Location:  36.7872°N, 118.66°W
Report Text: KBIH 250256Z AUTO 17019G26KT 10SM CLR 23/M07 A2999 RMK AO2 PK WND 17030/0227 SLP126 T02281067 53010
Loading
Personal Weather Stations






























Interactive Weather Map
Tropical Storm Tracking
New forecast layout! Learn more

10-Day Weather Forecast

Advertisements
Track Severe Weather on mobile